Rome, Wisconsin
Current Conditions -  °F | °C
As of 11:54 AM on Thursday 30 Oct 2014 (Local Time) from KISW Reporting Station
Overcast Overcast  
Wind Chill: 42°   Ceiling: 6500
Heat Index: 46°   Visibility: 10mi
Dew Point: 34°   Wind: 7mph
Humidity: 63%   Direction: 250°WSW
Pressure: 30.09"   Gusts: NA
Location:  44.252°N, 89.9853°W
Report Text: KISW 301654Z AUTO 25006KT 10SM OVC065 08/01 A3009 RMK AO2 SLP198 T00780011
Loading
Personal Weather Stations






























Interactive Weather Map
Tropical Storm Tracking
New forecast layout! Learn more

10-Day Weather Forecast

Advertisements
Track Severe Weather on mobile